sensor_id;sensor_type;location;lat;lon;timestamp;temperature;humidity
53286;DHT22;39171;45.550;12.074;2023-10-09T00:03:32;21.80;76.00
53286;DHT22;39171;45.550;12.074;2023-10-09T00:09:35;21.80;76.00
53286;DHT22;39171;45.550;12.074;2023-10-09T00:15:49;21.80;76.10
53286;DHT22;39171;45.550;12.074;2023-10-09T00:21:54;21.70;76.20
53286;DHT22;39171;45.550;12.074;2023-10-09T00:27:56;21.80;76.20
53286;DHT22;39171;45.550;12.074;2023-10-09T00:34:03;21.70;76.30
53286;DHT22;39171;45.550;12.074;2023-10-09T00:40:07;21.70;76.30
53286;DHT22;39171;45.550;12.074;2023-10-09T00:46:21;21.70;76.40
53286;DHT22;39171;45.550;12.074;2023-10-09T00:52:23;21.70;76.40
53286;DHT22;39171;45.550;12.074;2023-10-09T00:58:38;21.70;76.60
53286;DHT22;39171;45.550;12.074;2023-10-09T01:04:41;21.70;76.60
53286;DHT22;39171;45.550;12.074;2023-10-09T01:10:48;21.70;76.80
53286;DHT22;39171;45.550;12.074;2023-10-09T01:16:54;21.70;76.70
53286;DHT22;39171;45.550;12.074;2023-10-09T01:22:56;21.70;77.00
53286;DHT22;39171;45.550;12.074;2023-10-09T01:28:58;21.70;76.90
53286;DHT22;39171;45.550;12.074;2023-10-09T01:35:01;21.70;77.00
53286;DHT22;39171;45.550;12.074;2023-10-09T01:41:02;21.70;77.00
53286;DHT22;39171;45.550;12.074;2023-10-09T01:47:09;21.70;77.00
53286;DHT22;39171;45.550;12.074;2023-10-09T01:53:15;21.70;77.20
53286;DHT22;39171;45.550;12.074;2023-10-09T01:59:20;21.70;77.20
53286;DHT22;39171;45.550;12.074;2023-10-09T02:05:22;21.70;77.30
53286;DHT22;39171;45.550;12.074;2023-10-09T02:11:23;21.60;77.40
53286;DHT22;39171;45.550;12.074;2023-10-09T02:17:40;21.70;77.40
53286;DHT22;39171;45.550;12.074;2023-10-09T02:23:53;21.60;77.50
53286;DHT22;39171;45.550;12.074;2023-10-09T02:29:58;21.60;77.50
53286;DHT22;39171;45.550;12.074;2023-10-09T02:36:00;21.60;77.50
53286;DHT22;39171;45.550;12.074;2023-10-09T02:42:06;21.60;77.60
53286;DHT22;39171;45.550;12.074;2023-10-09T02:48:21;21.60;77.60
53286;DHT22;39171;45.550;12.074;2023-10-09T02:54:27;21.60;77.70
53286;DHT22;39171;45.550;12.074;2023-10-09T03:00:37;21.50;77.80
53286;DHT22;39171;45.550;12.074;2023-10-09T03:06:39;21.60;77.80
53286;DHT22;39171;45.550;12.074;2023-10-09T03:12:44;21.60;77.80
53286;DHT22;39171;45.550;12.074;2023-10-09T03:18:50;21.60;78.00
53286;DHT22;39171;45.550;12.074;2023-10-09T03:24:52;21.50;78.00
53286;DHT22;39171;45.550;12.074;2023-10-09T03:30:54;21.50;78.00
53286;DHT22;39171;45.550;12.074;2023-10-09T03:36:55;21.50;78.00
53286;DHT22;39171;45.550;12.074;2023-10-09T03:43:07;21.50;78.10
53286;DHT22;39171;45.550;12.074;2023-10-09T03:49:11;21.50;78.10
53286;DHT22;39171;45.550;12.074;2023-10-09T03:55:14;21.50;78.10
53286;DHT22;39171;45.550;12.074;2023-10-09T04:01:18;21.50;78.20
53286;DHT22;39171;45.550;12.074;2023-10-09T04:07:39;21.50;78.20
53286;DHT22;39171;45.550;12.074;2023-10-09T04:13:44;21.50;78.30
53286;DHT22;39171;45.550;12.074;2023-10-09T04:19:47;21.40;78.40
53286;DHT22;39171;45.550;12.074;2023-10-09T04:25:49;21.40;78.30
53286;DHT22;39171;45.550;12.074;2023-10-09T04:31:56;21.50;78.40
53286;DHT22;39171;45.550;12.074;2023-10-09T04:37:57;21.50;78.40
53286;DHT22;39171;45.550;12.074;2023-10-09T04:44:08;21.40;78.50
53286;DHT22;39171;45.550;12.074;2023-10-09T04:50:30;21.40;78.50
53286;DHT22;39171;45.550;12.074;2023-10-09T04:56:32;21.50;78.50
53286;DHT22;39171;45.550;12.074;2023-10-09T05:02:34;21.40;78.60
53286;DHT22;39171;45.550;12.074;2023-10-09T05:08:39;21.40;78.60
53286;DHT22;39171;45.550;12.074;2023-10-09T05:14:47;21.40;78.70
53286;DHT22;39171;45.550;12.074;2023-10-09T05:21:08;21.40;78.70
53286;DHT22;39171;45.550;12.074;2023-10-09T05:27:28;21.40;78.80
53286;DHT22;39171;45.550;12.074;2023-10-09T05:33:51;21.30;78.80
53286;DHT22;39171;45.550;12.074;2023-10-09T05:39:55;21.30;78.80
53286;DHT22;39171;45.550;12.074;2023-10-09T05:46:02;21.30;78.80
53286;DHT22;39171;45.550;12.074;2023-10-09T05:52:10;21.30;78.90
53286;DHT22;39171;45.550;12.074;2023-10-09T05:58:30;21.30;78.90
53286;DHT22;39171;45.550;12.074;2023-10-09T06:04:57;21.30;79.00
53286;DHT22;39171;45.550;12.074;2023-10-09T06:11:01;21.30;78.90
53286;DHT22;39171;45.550;12.074;2023-10-09T06:17:28;21.30;79.00
53286;DHT22;39171;45.550;12.074;2023-10-09T06:23:44;21.30;78.90
53286;DHT22;39171;45.550;12.074;2023-10-09T06:30:03;21.30;78.90
53286;DHT22;39171;45.550;12.074;2023-10-09T06:36:20;21.30;78.90
53286;DHT22;39171;45.550;12.074;2023-10-09T06:42:26;21.30;79.00
53286;DHT22;39171;45.550;12.074;2023-10-09T06:48:39;21.30;79.00
53286;DHT22;39171;45.550;12.074;2023-10-09T06:54:41;21.30;79.00
53286;DHT22;39171;45.550;12.074;2023-10-09T07:00:51;21.30;78.90
53286;DHT22;39171;45.550;12.074;2023-10-09T07:07:31;21.30;79.00
53286;DHT22;39171;45.550;12.074;2023-10-09T07:13:36;21.30;78.90
53286;DHT22;39171;45.550;12.074;2023-10-09T07:19:38;21.30;79.00
53286;DHT22;39171;45.550;12.074;2023-10-09T07:25:42;21.30;78.90
53286;DHT22;39171;45.550;12.074;2023-10-09T07:31:58;21.30;78.80
53286;DHT22;39171;45.550;12.074;2023-10-09T07:37:59;21.30;78.80
53286;DHT22;39171;45.550;12.074;2023-10-09T07:44:04;21.30;78.60
53286;DHT22;39171;45.550;12.074;2023-10-09T07:50:20;21.30;78.60
53286;DHT22;39171;45.550;12.074;2023-10-09T07:56:26;21.30;78.60
53286;DHT22;39171;45.550;12.074;2023-10-09T08:02:31;21.30;78.50
53286;DHT22;39171;45.550;12.074;2023-10-09T08:08:33;21.30;78.40
53286;DHT22;39171;45.550;12.074;2023-10-09T08:14:35;21.30;78.40
53286;DHT22;39171;45.550;12.074;2023-10-09T08:20:37;21.40;78.30
53286;DHT22;39171;45.550;12.074;2023-10-09T08:26:57;21.40;78.20
53286;DHT22;39171;45.550;12.074;2023-10-09T08:33:18;21.40;78.10
53286;DHT22;39171;45.550;12.074;2023-10-09T08:39:28;21.40;78.00
53286;DHT22;39171;45.550;12.074;2023-10-09T08:45:39;21.40;77.80
53286;DHT22;39171;45.550;12.074;2023-10-09T08:51:40;21.40;77.60
53286;DHT22;39171;45.550;12.074;2023-10-09T08:57:46;21.40;77.60
53286;DHT22;39171;45.550;12.074;2023-10-09T09:03:49;21.40;77.40
53286;DHT22;39171;45.550;12.074;2023-10-09T09:09:58;21.40;77.20
53286;DHT22;39171;45.550;12.074;2023-10-09T09:16:05;21.40;77.20
53286;DHT22;39171;45.550;12.074;2023-10-09T09:22:08;21.40;77.00
53286;DHT22;39171;45.550;12.074;2023-10-09T09:28:15;21.50;76.80
53286;DHT22;39171;45.550;12.074;2023-10-09T09:34:23;21.50;76.70
53286;DHT22;39171;45.550;12.074;2023-10-09T09:40:34;21.50;76.60
53286;DHT22;39171;45.550;12.074;2023-10-09T09:46:43;21.50;76.50
53286;DHT22;39171;45.550;12.074;2023-10-09T09:52:45;21.50;76.40
53286;DHT22;39171;45.550;12.074;2023-10-09T09:58:50;21.50;76.30
53286;DHT22;39171;45.550;12.074;2023-10-09T10:04:57;21.60;76.30
53286;DHT22;39171;45.550;12.074;2023-10-09T10:11:00;21.60;76.10
53286;DHT22;39171;45.550;12.074;2023-10-09T10:17:07;21.70;76.00
53286;DHT22;39171;45.550;12.074;2023-10-09T10:23:19;21.60;76.00
53286;DHT22;39171;45.550;12.074;2023-10-09T10:29:22;21.70;75.80
53286;DHT22;39171;45.550;12.074;2023-10-09T10:35:36;21.70;75.80
53286;DHT22;39171;45.550;12.074;2023-10-09T10:41:58;21.70;75.60
53286;DHT22;39171;45.550;12.074;2023-10-09T10:48:06;21.70;75.60
53286;DHT22;39171;45.550;12.074;2023-10-09T10:54:10;21.80;75.50
53286;DHT22;39171;45.550;12.074;2023-10-09T11:00:31;21.70;75.40
53286;DHT22;39171;45.550;12.074;2023-10-09T11:06:55;21.80;75.40
53286;DHT22;39171;45.550;12.074;2023-10-09T11:13:24;21.80;75.30
53286;DHT22;39171;45.550;12.074;2023-10-09T11:19:33;21.80;75.20
53286;DHT22;39171;45.550;12.074;2023-10-09T11:25:45;21.80;75.10
53286;DHT22;39171;45.550;12.074;2023-10-09T11:32:07;21.80;75.00
53286;DHT22;39171;45.550;12.074;2023-10-09T11:38:19;21.90;75.00
53286;DHT22;39171;45.550;12.074;2023-10-09T11:44:38;21.90;74.90
53286;DHT22;39171;45.550;12.074;2023-10-09T11:50:44;21.90;74.80
53286;DHT22;39171;45.550;12.074;2023-10-09T11:56:57;22.00;74.70
53286;DHT22;39171;45.550;12.074;2023-10-09T12:03:02;22.00;74.50
53286;DHT22;39171;45.550;12.074;2023-10-09T12:09:06;22.10;74.30
53286;DHT22;39171;45.550;12.074;2023-10-09T12:15:09;22.10;74.00
53286;DHT22;39171;45.550;12.074;2023-10-09T12:21:19;22.20;73.80
53286;DHT22;39171;45.550;12.074;2023-10-09T12:27:21;22.20;73.60
53286;DHT22;39171;45.550;12.074;2023-10-09T12:33:26;22.30;73.50
53286;DHT22;39171;45.550;12.074;2023-10-09T12:39:36;22.20;73.30
53286;DHT22;39171;45.550;12.074;2023-10-09T12:45:42;22.20;73.40
53286;DHT22;39171;45.550;12.074;2023-10-09T12:51:46;22.30;73.40
53286;DHT22;39171;45.550;12.074;2023-10-09T12:57:48;22.30;73.30
53286;DHT22;39171;45.550;12.074;2023-10-09T13:03:49;22.30;73.00
53286;DHT22;39171;45.550;12.074;2023-10-09T13:09:51;22.30;73.00
53286;DHT22;39171;45.550;12.074;2023-10-09T13:16:15;22.30;72.90
53286;DHT22;39171;45.550;12.074;2023-10-09T13:22:26;22.30;72.80
53286;DHT22;39171;45.550;12.074;2023-10-09T13:28:29;22.40;72.70
53286;DHT22;39171;45.550;12.074;2023-10-09T13:34:30;22.40;72.70
53286;DHT22;39171;45.550;12.074;2023-10-09T13:40:34;22.40;72.70
53286;DHT22;39171;45.550;12.074;2023-10-09T13:46:38;22.40;72.60
53286;DHT22;39171;45.550;12.074;2023-10-09T13:52:45;22.50;72.70
53286;DHT22;39171;45.550;12.074;2023-10-09T13:58:51;22.50;73.00
53286;DHT22;39171;45.550;12.074;2023-10-09T14:04:53;22.50;73.60
53286;DHT22;39171;45.550;12.074;2023-10-09T14:10:55;22.50;74.20
53286;DHT22;39171;45.550;12.074;2023-10-09T14:16:56;22.50;74.60
53286;DHT22;39171;45.550;12.074;2023-10-09T14:23:00;22.60;75.00
53286;DHT22;39171;45.550;12.074;2023-10-09T14:29:08;22.60;75.30
53286;DHT22;39171;45.550;12.074;2023-10-09T14:35:09;22.60;75.30
53286;DHT22;39171;45.550;12.074;2023-10-09T14:41:22;22.50;75.50
53286;DHT22;39171;45.550;12.074;2023-10-09T14:47:24;22.50;75.70
53286;DHT22;39171;45.550;12.074;2023-10-09T14:53:30;22.60;75.70
53286;DHT22;39171;45.550;12.074;2023-10-09T14:59:33;22.50;75.70
53286;DHT22;39171;45.550;12.074;2023-10-09T15:05:34;22.50;75.90
53286;DHT22;39171;45.550;12.074;2023-10-09T15:11:36;22.50;76.00
53286;DHT22;39171;45.550;12.074;2023-10-09T15:17:42;22.50;76.20
53286;DHT22;39171;45.550;12.074;2023-10-09T15:23:53;22.50;76.20
53286;DHT22;39171;45.550;12.074;2023-10-09T15:29:55;22.50;76.30
53286;DHT22;39171;45.550;12.074;2023-10-09T15:35:57;22.50;76.30
53286;DHT22;39171;45.550;12.074;2023-10-09T15:42:00;22.50;76.40
53286;DHT22;39171;45.550;12.074;2023-10-09T15:48:05;22.50;76.50
53286;DHT22;39171;45.550;12.074;2023-10-09T15:54:07;22.50;76.60
53286;DHT22;39171;45.550;12.074;2023-10-09T16:00:12;22.40;76.60
53286;DHT22;39171;45.550;12.074;2023-10-09T16:06:20;22.40;76.60
53286;DHT22;39171;45.550;12.074;2023-10-09T16:12:21;22.40;76.60
53286;DHT22;39171;45.550;12.074;2023-10-09T16:18:24;22.40;76.60
53286;DHT22;39171;45.550;12.074;2023-10-09T16:24:25;22.40;76.70
53286;DHT22;39171;45.550;12.074;2023-10-09T16:30:27;22.40;76.70
53286;DHT22;39171;45.550;12.074;2023-10-09T16:36:36;22.40;76.60
53286;DHT22;39171;45.550;12.074;2023-10-09T16:42:37;22.40;76.70
53286;DHT22;39171;45.550;12.074;2023-10-09T16:48:39;22.40;76.70
53286;DHT22;39171;45.550;12.074;2023-10-09T16:54:41;22.30;76.70
53286;DHT22;39171;45.550;12.074;2023-10-09T17:00:56;22.30;76.80
53286;DHT22;39171;45.550;12.074;2023-10-09T17:06:57;22.30;76.80
53286;DHT22;39171;45.550;12.074;2023-10-09T17:13:00;22.30;76.80
53286;DHT22;39171;45.550;12.074;2023-10-09T17:19:02;22.30;76.80
53286;DHT22;39171;45.550;12.074;2023-10-09T17:25:07;22.30;76.80
53286;DHT22;39171;45.550;12.074;2023-10-09T17:31:13;22.30;76.80
53286;DHT22;39171;45.550;12.074;2023-10-09T17:37:21;22.20;76.80
53286;DHT22;39171;45.550;12.074;2023-10-09T17:43:24;22.20;76.80
53286;DHT22;39171;45.550;12.074;2023-10-09T17:49:32;22.20;76.80
53286;DHT22;39171;45.550;12.074;2023-10-09T17:55:34;22.20;76.70
53286;DHT22;39171;45.550;12.074;2023-10-09T18:01:38;22.20;76.70
53286;DHT22;39171;45.550;12.074;2023-10-09T18:08:12;22.20;76.70
53286;DHT22;39171;45.550;12.074;2023-10-09T18:14:17;22.20;76.70
53286;DHT22;39171;45.550;12.074;2023-10-09T18:20:19;22.20;76.60
53286;DHT22;39171;45.550;12.074;2023-10-09T18:26:21;22.20;76.60
53286;DHT22;39171;45.550;12.074;2023-10-09T18:32:25;22.20;76.50
53286;DHT22;39171;45.550;12.074;2023-10-09T18:38:26;22.20;76.50
53286;DHT22;39171;45.550;12.074;2023-10-09T18:44:28;22.20;76.40
53286;DHT22;39171;45.550;12.074;2023-10-09T18:50:30;22.20;76.30
53286;DHT22;39171;45.550;12.074;2023-10-09T18:56:32;22.20;76.30
53286;DHT22;39171;45.550;12.074;2023-10-09T19:02:38;22.20;76.30
53286;DHT22;39171;45.550;12.074;2023-10-09T19:08:40;22.20;76.20
53286;DHT22;39171;45.550;12.074;2023-10-09T19:14:51;22.20;76.20
53286;DHT22;39171;45.550;12.074;2023-10-09T19:21:10;22.10;76.20
53286;DHT22;39171;45.550;12.074;2023-10-09T19:27:12;22.20;76.10
53286;DHT22;39171;45.550;12.074;2023-10-09T19:33:14;22.10;76.10
53286;DHT22;39171;45.550;12.074;2023-10-09T19:39:16;22.10;76.00
53286;DHT22;39171;45.550;12.074;2023-10-09T19:45:18;22.20;76.00
53286;DHT22;39171;45.550;12.074;2023-10-09T19:51:23;22.20;76.00
53286;DHT22;39171;45.550;12.074;2023-10-09T19:57:25;22.10;75.90
53286;DHT22;39171;45.550;12.074;2023-10-09T20:03:27;22.10;75.90
53286;DHT22;39171;45.550;12.074;2023-10-09T20:09:29;22.10;75.90
53286;DHT22;39171;45.550;12.074;2023-10-09T20:15:30;22.10;75.90
53286;DHT22;39171;45.550;12.074;2023-10-09T20:21:35;22.10;75.80
53286;DHT22;39171;45.550;12.074;2023-10-09T20:27:37;22.10;75.80
53286;DHT22;39171;45.550;12.074;2023-10-09T20:33:39;22.10;75.80
53286;DHT22;39171;45.550;12.074;2023-10-09T20:39:44;22.10;75.80
53286;DHT22;39171;45.550;12.074;2023-10-09T20:45:46;22.00;75.80
53286;DHT22;39171;45.550;12.074;2023-10-09T20:51:48;22.00;75.80
53286;DHT22;39171;45.550;12.074;2023-10-09T20:57:53;22.10;75.90
53286;DHT22;39171;45.550;12.074;2023-10-09T21:03:57;22.00;75.80
53286;DHT22;39171;45.550;12.074;2023-10-09T21:09:59;22.10;75.90
53286;DHT22;39171;45.550;12.074;2023-10-09T21:16:03;22.00;75.90
53286;DHT22;39171;45.550;12.074;2023-10-09T21:22:06;22.00;75.90
53286;DHT22;39171;45.550;12.074;2023-10-09T21:28:07;22.10;76.00
53286;DHT22;39171;45.550;12.074;2023-10-09T21:34:09;22.00;76.00
53286;DHT22;39171;45.550;12.074;2023-10-09T21:40:12;22.00;76.00
53286;DHT22;39171;45.550;12.074;2023-10-09T21:46:24;22.10;76.10
53286;DHT22;39171;45.550;12.074;2023-10-09T21:52:26;22.10;76.10
53286;DHT22;39171;45.550;12.074;2023-10-09T21:58:28;22.00;76.10
53286;DHT22;39171;45.550;12.074;2023-10-09T22:04:30;22.00;76.20
53286;DHT22;39171;45.550;12.074;2023-10-09T22:10:31;22.00;76.20
53286;DHT22;39171;45.550;12.074;2023-10-09T22:16:33;22.00;76.20
53286;DHT22;39171;45.550;12.074;2023-10-09T22:22:38;22.00;76.30
53286;DHT22;39171;45.550;12.074;2023-10-09T22:28:45;22.00;76.40
53286;DHT22;39171;45.550;12.074;2023-10-09T22:34:47;22.00;76.40
53286;DHT22;39171;45.550;12.074;2023-10-09T22:40:52;22.00;76.40
53286;DHT22;39171;45.550;12.074;2023-10-09T22:46:54;22.00;76.40
53286;DHT22;39171;45.550;12.074;2023-10-09T22:52:56;22.00;76.80
53286;DHT22;39171;45.550;12.074;2023-10-09T22:59:03;22.00;76.70
53286;DHT22;39171;45.550;12.074;2023-10-09T23:05:21;22.00;76.70
53286;DHT22;39171;45.550;12.074;2023-10-09T23:11:31;22.00;76.80
53286;DHT22;39171;45.550;12.074;2023-10-09T23:17:34;22.00;76.80
53286;DHT22;39171;45.550;12.074;2023-10-09T23:23:47;22.00;76.90
53286;DHT22;39171;45.550;12.074;2023-10-09T23:29:51;22.00;77.00
53286;DHT22;39171;45.550;12.074;2023-10-09T23:35:53;22.00;77.00
53286;DHT22;39171;45.550;12.074;2023-10-09T23:42:06;22.00;77.00
53286;DHT22;39171;45.550;12.074;2023-10-09T23:48:16;22.00;77.00
53286;DHT22;39171;45.550;12.074;2023-10-09T23:54:27;22.00;77.00
